createdAt,value
2019-02-21T00:00:28.233Z,33.50
2019-02-21T00:02:29.337Z,39.80
2019-02-21T00:03:28.325Z,33.80
2019-02-21T00:04:28.203Z,31.80
2019-02-21T00:06:29.305Z,33.70
2019-02-21T00:07:28.235Z,36.50
2019-02-21T00:08:28.201Z,34.40
2019-02-21T00:09:28.264Z,34.00
2019-02-21T00:10:28.126Z,33.50
2019-02-21T00:11:28.142Z,34.50
2019-02-21T00:12:28.103Z,37.60
2019-02-21T00:13:28.175Z,32.30
2019-02-21T00:14:28.118Z,35.20
2019-02-21T00:15:28.172Z,32.40
2019-02-21T00:16:28.065Z,36.90
2019-02-21T00:17:28.079Z,38.30
2019-02-21T00:18:28.041Z,35.10
2019-02-21T00:19:28.119Z,31.80
2019-02-21T00:20:28.014Z,36.00
2019-02-21T00:22:29.166Z,32.00
2019-02-21T00:23:28.207Z,33.60
2019-02-21T00:24:28.128Z,31.60
2019-02-21T00:26:36.914Z,31.00
2019-02-21T00:27:36.956Z,35.80
2019-02-21T00:29:36.897Z,37.60
2019-02-21T00:31:45.956Z,37.00
2019-02-21T00:32:45.842Z,38.20
2019-02-21T00:33:45.932Z,37.40
2019-02-21T00:34:45.843Z,35.90
2019-02-21T00:35:45.918Z,38.70
2019-02-21T00:36:45.794Z,34.10
2019-02-21T00:37:45.836Z,33.50
2019-02-21T00:38:45.790Z,38.30
2019-02-21T00:39:45.880Z,37.10
2019-02-21T00:40:45.750Z,36.80
2019-02-21T00:41:45.858Z,36.40
2019-02-21T00:42:45.731Z,35.40
2019-02-21T00:43:45.769Z,36.70
2019-02-21T00:44:45.742Z,37.50
2019-02-21T00:45:45.789Z,35.90
2019-02-21T00:46:45.692Z,39.30
2019-02-21T00:47:45.820Z,39.00
2019-02-21T00:48:45.669Z,35.60
2019-02-21T00:49:45.743Z,36.20
2019-02-21T00:50:45.640Z,37.10
2019-02-21T00:51:45.731Z,39.00
2019-02-21T00:52:45.625Z,40.50
2019-02-21T00:53:45.640Z,40.30
2019-02-21T00:54:45.601Z,37.50
2019-02-21T00:55:45.675Z,37.60
2019-02-21T00:56:45.576Z,40.00
2019-02-21T00:57:45.663Z,38.70
2019-02-21T00:58:45.562Z,39.60
2019-02-21T00:59:45.576Z,37.60
2019-02-21T01:00:46.778Z,41.30
2019-02-21T01:01:45.590Z,40.20
2019-02-21T01:02:45.512Z,38.50
2019-02-21T01:03:45.600Z,39.80
2019-02-21T01:04:45.485Z,37.10
2019-02-21T01:05:46.566Z,38.20
2019-02-21T01:06:45.463Z,38.20
2019-02-21T01:07:45.526Z,39.50
2019-02-21T01:08:45.450Z,37.40
2019-02-21T01:10:46.583Z,38.80
2019-02-21T01:11:45.452Z,39.40
2019-02-21T01:12:45.398Z,40.80
2019-02-21T01:13:45.465Z,39.50
2019-02-21T01:14:45.382Z,41.70
2019-02-21T01:15:45.507Z,40.50
2019-02-21T01:16:45.381Z,41.50
2019-02-21T01:17:45.387Z,42.20
2019-02-21T01:18:45.333Z,43.30
2019-02-21T01:19:45.418Z,42.10
2019-02-21T01:20:45.336Z,43.00
2019-02-21T01:21:45.344Z,43.30
2019-02-21T01:22:45.289Z,45.80
2019-02-21T01:23:45.351Z,42.50
2019-02-21T01:24:45.264Z,42.70
2019-02-21T01:25:45.344Z,42.80
2019-02-21T01:26:45.270Z,43.90
2019-02-21T01:27:45.360Z,43.10
2019-02-21T01:28:45.220Z,41.00
2019-02-21T01:29:45.280Z,46.90
2019-02-21T01:30:45.198Z,42.90
2019-02-21T01:31:45.314Z,47.80
2019-02-21T01:32:45.174Z,45.80
2019-02-21T01:33:45.194Z,45.60
2019-02-21T01:34:45.152Z,42.20
2019-02-21T01:35:45.243Z,43.80
2019-02-21T01:36:45.164Z,43.60
2019-02-21T01:37:45.250Z,46.10
2019-02-21T01:38:45.119Z,45.60
2019-02-21T01:39:45.143Z,43.60
2019-02-21T01:40:45.084Z,45.60
2019-02-21T01:41:45.149Z,44.70
2019-02-21T01:42:45.084Z,42.60
2019-02-21T01:43:45.166Z,45.00
2019-02-21T01:44:45.083Z,43.80
2019-02-21T01:45:45.075Z,40.30
2019-02-21T01:46:45.022Z,42.10
2019-02-21T01:47:45.115Z,44.90
2019-02-21T01:48:44.998Z,44.40
2019-02-21T01:49:45.103Z,49.10
2019-02-21T01:50:44.983Z,49.10
2019-02-21T01:51:45.030Z,47.20
2019-02-21T01:52:44.950Z,49.30
2019-02-21T01:53:45.065Z,46.70
2019-02-21T01:54:44.930Z,45.70
2019-02-21T01:55:45.048Z,44.80
2019-02-21T01:56:44.908Z,50.90
2019-02-21T01:57:44.959Z,47.50
2019-02-21T01:58:44.911Z,47.80
2019-02-21T01:59:44.969Z,45.30
2019-02-21T02:00:44.863Z,46.30
2019-02-21T02:01:44.900Z,49.80
2019-02-21T02:02:44.876Z,55.00
2019-02-21T02:03:44.898Z,47.10
2019-02-21T02:04:44.816Z,48.50
2019-02-21T02:05:44.916Z,49.00
2019-02-21T02:06:44.800Z,51.80
2019-02-21T02:07:44.863Z,49.90
2019-02-21T02:08:44.774Z,44.60
2019-02-21T02:09:44.835Z,46.10
2019-02-21T02:10:44.752Z,50.70
2019-02-21T02:11:44.852Z,48.90
2019-02-21T02:12:44.760Z,53.50
2019-02-21T02:13:44.788Z,48.50
2019-02-21T02:14:44.707Z,49.40
2019-02-21T02:15:44.790Z,47.90
2019-02-21T02:16:44.680Z,51.60
2019-02-21T02:17:44.786Z,51.20
2019-02-21T02:18:44.686Z,49.60
2019-02-21T02:20:45.806Z,51.60
2019-02-21T02:21:44.708Z,48.90
2019-02-21T02:22:44.661Z,50.50
2019-02-21T02:23:44.750Z,49.50
2019-02-21T02:24:44.608Z,48.80
2019-02-21T02:25:44.637Z,46.70
2019-02-21T02:26:44.568Z,48.10
2019-02-21T02:27:44.650Z,45.80
2019-02-21T02:28:44.573Z,48.20
2019-02-21T02:29:44.564Z,51.40
2019-02-21T02:30:44.524Z,59.60
2019-02-21T02:32:45.646Z,52.00
2019-02-21T02:33:44.621Z,50.50
2019-02-21T02:34:44.478Z,52.50
2019-02-21T02:35:44.504Z,49.30
2019-02-21T02:36:44.465Z,47.60
2019-02-21T02:37:44.523Z,48.30
2019-02-21T02:38:44.456Z,49.10
2019-02-21T02:39:44.557Z,50.50
2019-02-21T02:40:44.417Z,51.10
2019-02-21T02:41:44.442Z,52.80
2019-02-21T02:42:44.390Z,49.00
2019-02-21T02:43:45.513Z,52.40
2019-02-21T02:44:44.374Z,48.50
2019-02-21T02:45:44.470Z,50.90
2019-02-21T02:46:44.358Z,49.40
2019-02-21T02:47:44.386Z,49.50
2019-02-21T02:48:44.360Z,50.20
2019-02-21T02:49:44.621Z,49.60
2019-02-21T02:50:44.302Z,50.60
2019-02-21T02:51:44.405Z,46.90
2019-02-21T02:52:44.283Z,53.10
2019-02-21T02:53:44.322Z,49.00
2019-02-21T02:54:44.283Z,49.70
2019-02-21T02:55:44.388Z,51.30
2019-02-21T02:56:44.240Z,50.30
2019-02-21T02:57:44.349Z,46.40
2019-02-21T02:58:45.624Z,46.60
2019-02-21T02:59:44.306Z,45.90
2019-02-21T03:00:44.189Z,47.70
2019-02-21T03:01:44.273Z,46.90
2019-02-21T03:02:44.167Z,46.80
2019-02-21T03:04:45.353Z,49.60
2019-02-21T03:05:44.224Z,45.80
2019-02-21T03:06:44.127Z,47.50
2019-02-21T03:07:44.208Z,49.40
2019-02-21T03:08:44.103Z,46.10
2019-02-21T03:09:44.122Z,45.90
2019-02-21T03:10:44.188Z,43.30
2019-02-21T03:11:44.132Z,48.20
2019-02-21T03:12:44.065Z,45.00
2019-02-21T03:13:44.176Z,44.00
2019-02-21T03:14:44.070Z,44.90
2019-02-21T03:15:44.098Z,44.40
2019-02-21T03:16:44.009Z,47.40
2019-02-21T03:17:44.076Z,42.00
2019-02-21T03:18:43.995Z,46.00
2019-02-21T03:19:44.091Z,43.10
2019-02-21T03:20:44.033Z,44.80
2019-02-21T03:21:44.000Z,46.80
2019-02-21T03:22:43.959Z,44.70
2019-02-21T03:23:44.012Z,48.30
2019-02-21T03:24:43.917Z,48.50
2019-02-21T03:25:44.057Z,46.70
2019-02-21T03:26:43.909Z,46.30
2019-02-21T03:27:43.940Z,46.30
2019-02-21T03:28:43.881Z,43.10
2019-02-21T03:29:43.952Z,46.20
2019-02-21T03:30:43.881Z,46.70
2019-02-21T03:31:54.745Z,43.90
2019-02-21T03:32:44.828Z,48.00
2019-02-21T03:33:43.879Z,44.80
2019-02-21T03:34:43.810Z,48.50
2019-02-21T03:35:43.921Z,47.70
2019-02-21T03:36:43.784Z,49.30
2019-02-21T03:37:43.827Z,51.50
2019-02-21T03:38:43.761Z,49.20
2019-02-21T03:39:43.815Z,49.20
2019-02-21T03:40:43.774Z,48.90
2019-02-21T03:41:43.861Z,47.90
2019-02-21T03:42:43.730Z,49.00
2019-02-21T03:43:43.745Z,49.90
2019-02-21T03:44:43.699Z,46.00
2019-02-21T03:45:43.755Z,51.00
2019-02-21T03:46:43.700Z,55.80
2019-02-21T03:47:43.769Z,50.00
2019-02-21T03:48:43.654Z,51.20
2019-02-21T03:50:44.761Z,51.50
2019-02-21T03:51:44.751Z,50.90
2019-02-21T03:52:43.605Z,50.30
2019-02-21T03:53:43.713Z,51.30
2019-02-21T03:54:43.602Z,52.90
2019-02-21T03:55:43.624Z,55.00
2019-02-21T03:56:43.595Z,53.40
2019-02-21T03:57:43.640Z,53.70
2019-02-21T03:58:43.537Z,53.60
2019-02-21T03:59:43.649Z,50.40
2019-02-21T04:00:43.520Z,56.10
2019-02-21T04:01:43.595Z,53.80
2019-02-21T04:02:43.498Z,55.30
2019-02-21T04:03:43.576Z,51.50
2019-02-21T04:04:43.492Z,54.00
2019-02-21T04:05:43.483Z,52.70
2019-02-21T04:06:43.487Z,50.20
2019-02-21T04:07:43.500Z,56.30
2019-02-21T04:08:43.429Z,54.10
2019-02-21T04:10:43.401Z,51.90
2019-02-21T04:11:43.460Z,52.00
2019-02-21T04:12:43.417Z,55.20
2019-02-21T04:13:43.442Z,51.40
2019-02-21T04:14:43.366Z,50.10
2019-02-21T04:15:43.453Z,56.10
2019-02-21T04:16:43.346Z,54.20
2019-02-21T04:17:44.425Z,52.70
2019-02-21T04:18:43.313Z,53.70
2019-02-21T04:19:43.381Z,55.40
2019-02-21T04:20:43.295Z,58.30
2019-02-21T04:21:43.391Z,55.70
2019-02-21T04:22:43.294Z,51.50
2019-02-21T04:23:43.305Z,57.20
2019-02-21T04:24:43.254Z,59.30
2019-02-21T04:25:43.338Z,59.20
2019-02-21T04:26:43.227Z,54.90
2019-02-21T04:27:43.364Z,61.70
2019-02-21T04:28:45.652Z,55.60
2019-02-21T04:29:43.245Z,58.60
2019-02-21T04:30:43.184Z,59.30
2019-02-21T04:31:43.260Z,57.70
2019-02-21T04:32:43.194Z,60.00
2019-02-21T04:33:43.271Z,55.50
2019-02-21T04:34:43.164Z,60.30
2019-02-21T04:35:43.187Z,61.40
2019-02-21T04:36:43.112Z,61.60
2019-02-21T04:37:43.231Z,60.00
2019-02-21T04:38:43.097Z,55.00
2019-02-21T04:40:44.206Z,60.50
2019-02-21T04:41:43.127Z,59.60
2019-02-21T04:42:43.078Z,59.80
2019-02-21T04:43:43.138Z,58.10
2019-02-21T04:44:43.037Z,57.00
2019-02-21T04:45:43.045Z,55.60
2019-02-21T04:46:43.002Z,56.70
2019-02-21T04:47:43.094Z,56.30
2019-02-21T04:48:43.007Z,59.80
2019-02-21T04:49:43.085Z,58.10
2019-02-21T04:50:42.960Z,55.60
2019-02-21T04:51:42.991Z,60.40
2019-02-21T04:52:42.937Z,58.60
2019-02-21T04:53:43.030Z,58.30
2019-02-21T04:54:42.912Z,58.40
2019-02-21T04:55:43.018Z,59.40
2019-02-21T04:56:42.905Z,57.10
2019-02-21T04:57:42.929Z,58.50
2019-02-21T04:58:42.905Z,60.60
2019-02-21T04:59:42.958Z,57.50
2019-02-21T05:00:42.848Z,59.60
2019-02-21T05:02:28.985Z,59.30
2019-02-21T05:02:43.902Z,54.30
2019-02-21T05:03:42.857Z,58.40
2019-02-21T05:04:42.908Z,59.90
2019-02-21T05:05:42.792Z,60.00
2019-02-21T05:07:43.901Z,58.90
2019-02-21T05:08:43.852Z,61.50
2019-02-21T05:09:42.748Z,59.00
2019-02-21T05:10:42.812Z,56.10
2019-02-21T05:11:42.728Z,58.30
2019-02-21T05:12:42.824Z,61.50
2019-02-21T05:13:42.712Z,56.80
2019-02-21T05:14:42.870Z,56.20
2019-02-21T05:15:42.704Z,57.70
2019-02-21T05:16:44.614Z,58.70
2019-02-21T05:17:42.656Z,58.50
2019-02-21T05:18:42.765Z,60.00
2019-02-21T05:19:42.661Z,58.90
2019-02-21T05:20:42.675Z,61.00
2019-02-21T05:21:42.616Z,59.70
2019-02-21T05:22:42.691Z,60.80
2019-02-21T05:23:42.597Z,57.10
2019-02-21T05:24:42.850Z,59.30
2019-02-21T05:25:42.569Z,62.60
2019-02-21T05:26:42.622Z,62.80
2019-02-21T05:27:42.569Z,65.80
2019-02-21T05:28:42.545Z,58.60
2019-02-21T05:29:42.562Z,57.70
2019-02-21T05:30:42.647Z,67.00
2019-02-21T05:31:42.502Z,59.80
2019-02-21T05:32:42.556Z,62.50
2019-02-21T05:33:42.481Z,66.80
2019-02-21T05:34:42.602Z,61.80
2019-02-21T05:35:42.491Z,60.60
2019-02-21T05:36:42.536Z,66.80
2019-02-21T05:37:42.449Z,61.40
2019-02-21T05:38:42.495Z,62.90
2019-02-21T05:39:42.417Z,67.80
2019-02-21T05:40:42.551Z,60.20
2019-02-21T05:41:42.413Z,60.10
2019-02-21T05:42:42.440Z,57.80
2019-02-21T05:43:42.446Z,64.20
2019-02-21T05:44:42.378Z,61.50
2019-02-21T05:45:42.390Z,69.60
2019-02-21T05:46:42.451Z,66.90
2019-02-21T05:47:42.340Z,63.10
2019-02-21T05:48:42.359Z,62.00
2019-02-21T05:49:42.311Z,61.70
2019-02-21T05:50:42.403Z,61.20
2019-02-21T05:51:42.292Z,67.30
2019-02-21T05:52:42.386Z,66.90
2019-02-21T05:53:42.265Z,61.20
2019-02-21T05:54:42.301Z,64.30
2019-02-21T05:55:42.266Z,65.00
2019-02-21T05:56:44.294Z,64.80
2019-02-21T05:57:42.218Z,64.20
2019-02-21T05:58:42.326Z,68.60
2019-02-21T05:59:42.199Z,66.10
2019-02-21T06:00:42.235Z,65.20
2019-02-21T06:01:42.208Z,68.80
2019-02-21T06:02:53.119Z,67.60
2019-02-21T06:03:43.281Z,66.80
2019-02-21T06:04:42.147Z,70.70
2019-02-21T06:05:42.332Z,69.50
2019-02-21T06:06:42.212Z,67.30
2019-02-21T06:07:42.110Z,65.20
2019-02-21T06:08:44.138Z,66.20
2019-02-21T06:09:42.370Z,66.10
2019-02-21T06:10:42.101Z,60.60
2019-02-21T06:11:42.117Z,68.10
2019-02-21T06:12:42.116Z,66.30
2019-02-21T06:13:44.613Z,71.50
2019-02-21T06:14:42.041Z,66.10
2019-02-21T06:15:42.023Z,64.50
2019-02-21T06:16:42.040Z,68.30
2019-02-21T06:17:41.998Z,67.00
2019-02-21T06:18:42.006Z,68.40
2019-02-21T06:19:41.976Z,61.80
2019-02-21T06:20:41.970Z,64.80
2019-02-21T06:21:41.983Z,61.50
2019-02-21T06:22:41.953Z,68.60
2019-02-21T06:23:41.933Z,67.20
2019-02-21T06:25:50.808Z,63.70
2019-02-21T06:26:42.925Z,71.10
2019-02-21T06:27:41.898Z,69.40
2019-02-21T06:28:41.885Z,70.80
2019-02-21T06:30:43.409Z,70.90
2019-02-21T06:31:41.887Z,70.30
2019-02-21T06:32:41.870Z,70.00
2019-02-21T06:33:41.840Z,74.10
2019-02-21T06:34:41.820Z,67.80
2019-02-21T06:35:41.811Z,69.40
2019-02-21T06:36:41.825Z,70.30
2019-02-21T06:37:41.811Z,70.30
2019-02-21T06:38:41.773Z,70.50
2019-02-21T06:39:41.808Z,65.10
2019-02-21T06:40:41.766Z,71.30
2019-02-21T06:41:42.777Z,65.50
2019-02-21T06:42:41.776Z,69.00
2019-02-21T06:44:42.831Z,67.70
2019-02-21T06:47:28.721Z,65.60
2019-02-21T06:48:28.784Z,65.80
2019-02-21T06:49:32.660Z,70.20
2019-02-21T06:50:28.689Z,68.40
2019-02-21T06:51:28.523Z,65.80
2019-02-21T06:52:28.599Z,67.90
2019-02-21T06:53:28.531Z,66.80
2019-02-21T06:54:28.594Z,70.50
2019-02-21T06:55:28.479Z,73.20
2019-02-21T06:57:29.609Z,68.00
2019-02-21T06:58:28.465Z,65.30
2019-02-21T06:59:28.434Z,68.70
2019-02-21T07:00:28.428Z,65.30
2019-02-21T07:01:29.595Z,65.90
2019-02-21T07:02:28.623Z,67.10
2019-02-21T07:03:29.138Z,69.00
2019-02-21T07:05:29.497Z,69.40
2019-02-21T07:06:31.814Z,65.90
2019-02-21T07:07:28.395Z,65.30
2019-02-21T07:08:28.345Z,68.50
2019-02-21T07:09:28.363Z,70.90
2019-02-21T07:10:28.319Z,67.60
2019-02-21T07:12:29.332Z,62.10
2019-02-21T07:13:28.286Z,68.40
2019-02-21T07:14:28.269Z,70.30
2019-02-21T07:15:28.264Z,66.20
2019-02-21T07:16:28.247Z,63.80
2019-02-21T07:17:28.243Z,67.30
2019-02-21T07:18:29.025Z,67.10
2019-02-21T07:19:28.220Z,61.10
2019-02-21T07:20:28.212Z,66.60
2019-02-21T07:21:28.198Z,67.90
2019-02-21T07:22:28.182Z,65.60
2019-02-21T07:23:28.205Z,67.10
2019-02-21T07:24:28.158Z,63.40
2019-02-21T07:25:28.153Z,71.60
2019-02-21T07:26:28.145Z,65.40
2019-02-21T07:27:28.131Z,62.50
2019-02-21T07:28:28.170Z,63.60
2019-02-21T07:29:28.110Z,65.40
2019-02-21T07:30:28.092Z,61.60
2019-02-21T07:31:29.634Z,64.70
2019-02-21T07:32:28.072Z,64.50
2019-02-21T07:33:29.156Z,59.50
2019-02-21T07:34:30.361Z,69.10
2019-02-21T07:35:28.051Z,70.20
2019-02-21T07:36:28.032Z,69.90
2019-02-21T07:37:28.019Z,61.70
2019-02-21T07:38:28.025Z,61.70
2019-02-21T07:39:35.625Z,63.50
2019-02-21T07:40:28.989Z,59.00
2019-02-21T07:41:28.001Z,62.70
2019-02-21T07:42:27.963Z,59.60
2019-02-21T07:43:27.969Z,67.40
2019-02-21T07:44:27.966Z,62.80
2019-02-21T07:46:29.047Z,62.30
2019-02-21T07:47:27.917Z,67.90
2019-02-21T07:48:27.898Z,63.00
2019-02-21T07:49:27.913Z,65.00
2019-02-21T07:50:27.903Z,63.70
2019-02-21T07:51:27.866Z,65.40
2019-02-21T07:52:27.854Z,60.00
2019-02-21T07:53:27.846Z,65.80
2019-02-21T07:54:27.847Z,59.90
2019-02-21T07:55:27.871Z,61.60
2019-02-21T07:56:27.805Z,61.00
2019-02-21T07:57:27.800Z,63.90
2019-02-21T07:58:27.798Z,60.00
2019-02-21T07:59:28.801Z,64.00
2019-02-21T08:00:27.758Z,62.70
2019-02-21T08:01:27.759Z,58.50
2019-02-21T08:02:27.739Z,63.80
2019-02-21T08:03:41.146Z,60.30
2019-02-21T08:04:28.756Z,59.10
2019-02-21T08:05:27.775Z,61.80
2019-02-21T08:06:27.695Z,64.30
2019-02-21T08:07:27.693Z,57.20
2019-02-21T08:08:27.667Z,57.00
2019-02-21T08:09:28.097Z,60.60
2019-02-21T08:10:33.589Z,59.20
2019-02-21T08:11:28.641Z,60.20
2019-02-21T08:12:27.625Z,60.20
2019-02-21T08:13:27.632Z,63.70
2019-02-21T08:14:27.607Z,58.90
2019-02-21T08:15:27.929Z,66.90
2019-02-21T08:16:27.582Z,58.60
2019-02-21T08:17:28.067Z,62.60
2019-02-21T08:18:27.563Z,65.30
2019-02-21T08:19:27.663Z,64.50
2019-02-21T08:20:34.185Z,60.80
2019-02-21T08:21:28.663Z,64.00
2019-02-21T08:22:27.540Z,57.50
2019-02-21T08:23:27.504Z,63.20
2019-02-21T08:24:27.496Z,62.60
2019-02-21T08:25:27.572Z,60.60
2019-02-21T08:26:27.519Z,64.70
2019-02-21T08:27:27.462Z,63.70
2019-02-21T08:28:27.459Z,65.30
2019-02-21T08:29:27.435Z,67.80
2019-02-21T08:30:29.225Z,70.60
2019-02-21T08:31:27.442Z,68.40
2019-02-21T08:32:27.411Z,71.40
2019-02-21T08:33:27.402Z,61.70
2019-02-21T08:34:27.389Z,72.90
2019-02-21T08:35:27.369Z,82.80
2019-02-21T08:36:27.393Z,90.70
2019-02-21T08:37:27.367Z,71.60
2019-02-21T08:38:27.347Z,66.80
2019-02-21T08:39:27.330Z,71.60
2019-02-21T08:40:27.323Z,67.80
2019-02-21T08:41:27.328Z,65.60
2019-02-21T08:42:27.299Z,61.20
2019-02-21T08:43:27.294Z,60.90
2019-02-21T08:44:28.879Z,86.20
2019-02-21T08:45:27.262Z,68.60
2019-02-21T08:46:27.281Z,62.10
2019-02-21T08:47:27.241Z,65.80
2019-02-21T08:49:28.344Z,64.10
2019-02-21T08:50:27.216Z,66.20
2019-02-21T08:51:27.227Z,65.70
2019-02-21T08:52:27.194Z,65.00
2019-02-21T08:53:28.140Z,65.80
2019-02-21T08:54:27.178Z,64.90
2019-02-21T08:55:27.153Z,69.60
2019-02-21T08:56:29.782Z,60.30
2019-02-21T08:57:27.136Z,62.40
2019-02-21T08:58:27.122Z,62.00
2019-02-21T08:59:27.111Z,65.80
2019-02-21T09:00:27.104Z,68.40
2019-02-21T09:01:27.080Z,62.90
2019-02-21T09:02:27.112Z,63.80
2019-02-21T09:03:27.069Z,66.70
2019-02-21T09:04:27.980Z,68.80
2019-02-21T09:05:27.045Z,64.10
2019-02-21T09:06:27.035Z,64.40
2019-02-21T09:07:27.047Z,63.40
2019-02-21T09:08:33.746Z,67.80
2019-02-21T09:09:28.002Z,76.80
2019-02-21T09:10:27.822Z,71.80
2019-02-21T09:11:26.974Z,65.20
2019-02-21T09:12:27.020Z,70.20
2019-02-21T09:13:26.966Z,70.80
2019-02-21T09:14:26.950Z,69.50
2019-02-21T09:15:26.937Z,69.20
2019-02-21T09:16:26.927Z,75.40
2019-02-21T09:17:26.940Z,76.30
2019-02-21T09:18:26.919Z,76.70
2019-02-21T09:19:26.890Z,66.70
2019-02-21T09:20:26.881Z,67.20
2019-02-21T09:21:26.868Z,69.60
2019-02-21T09:22:26.895Z,71.40
2019-02-21T09:23:26.854Z,70.50
2019-02-21T09:24:38.086Z,70.10
2019-02-21T09:25:27.826Z,67.50
2019-02-21T09:26:26.818Z,71.70
2019-02-21T09:27:26.837Z,68.00
2019-02-21T09:28:26.799Z,62.80
2019-02-21T09:29:26.788Z,66.90
2019-02-21T09:30:26.791Z,66.40
2019-02-21T09:31:26.757Z,66.10
2019-02-21T09:32:28.780Z,68.40
2019-02-21T09:33:26.769Z,67.20
2019-02-21T09:34:26.740Z,67.50
2019-02-21T09:35:26.719Z,66.70
2019-02-21T09:36:26.727Z,67.30
2019-02-21T09:37:26.692Z,71.40
2019-02-21T09:38:26.726Z,69.30
2019-02-21T09:39:26.674Z,69.70
2019-02-21T09:40:28.467Z,66.90
2019-02-21T09:41:28.587Z,71.10
2019-02-21T09:42:26.649Z,74.80
2019-02-21T09:43:26.680Z,68.90
2019-02-21T09:44:27.471Z,68.90
2019-02-21T09:45:26.611Z,67.70
2019-02-21T09:46:26.613Z,66.40
2019-02-21T09:47:26.585Z,70.10
2019-02-21T09:48:26.578Z,66.90
2019-02-21T09:49:26.591Z,71.40
2019-02-21T09:50:26.571Z,69.70
2019-02-21T09:51:26.539Z,70.60
2019-02-21T09:52:26.542Z,67.80
2019-02-21T09:53:26.572Z,72.70
2019-02-21T09:54:26.539Z,72.30
2019-02-21T09:55:26.494Z,71.10
2019-02-21T09:56:30.265Z,72.50
2019-02-21T09:57:26.471Z,66.50
2019-02-21T09:58:26.467Z,71.90
2019-02-21T09:59:28.738Z,69.40
2019-02-21T10:00:26.467Z,74.80
2019-02-21T10:01:26.441Z,77.40
2019-02-21T10:03:27.544Z,73.70
2019-02-21T10:04:32.162Z,69.10
2019-02-21T10:05:27.384Z,68.70
2019-02-21T10:06:26.417Z,70.20
2019-02-21T10:07:26.480Z,68.70
2019-02-21T10:08:26.436Z,71.80
2019-02-21T10:09:26.509Z,70.60
2019-02-21T10:10:26.580Z,77.40
2019-02-21T10:11:26.415Z,79.60
2019-02-21T10:12:26.626Z,72.30
2019-02-21T10:13:26.418Z,66.10
2019-02-21T10:14:26.736Z,73.30
2019-02-21T10:15:26.537Z,65.50
2019-02-21T10:16:26.493Z,69.40
2019-02-21T10:17:26.500Z,69.90
2019-02-21T10:18:26.245Z,70.70
2019-02-21T10:19:26.246Z,71.50
2019-02-21T10:20:26.249Z,68.20
2019-02-21T10:21:26.215Z,72.80
2019-02-21T10:22:26.347Z,76.50
2019-02-21T10:23:26.209Z,69.30
2019-02-21T10:24:26.183Z,77.00
2019-02-21T10:25:26.190Z,74.60
2019-02-21T10:26:26.163Z,72.30
2019-02-21T10:27:26.142Z,70.80
2019-02-21T10:28:26.131Z,73.30
2019-02-21T10:29:26.121Z,69.60
2019-02-21T10:30:26.139Z,73.90
2019-02-21T10:31:26.098Z,75.70
2019-02-21T10:32:26.088Z,69.00
2019-02-21T10:33:26.120Z,71.90
2019-02-21T10:34:26.069Z,76.10
2019-02-21T10:35:26.089Z,76.30
2019-02-21T10:36:26.048Z,76.10
2019-02-21T10:37:26.037Z,85.10
2019-02-21T10:38:26.030Z,79.80
2019-02-21T10:39:26.008Z,76.80
2019-02-21T10:40:26.042Z,84.90
2019-02-21T10:41:25.996Z,85.40
2019-02-21T10:42:25.990Z,80.40
2019-02-21T10:43:25.965Z,72.10
2019-02-21T10:44:25.959Z,73.20
2019-02-21T10:45:25.940Z,71.70
2019-02-21T10:46:25.964Z,71.80
2019-02-21T10:47:25.916Z,62.80
2019-02-21T10:48:25.914Z,67.70
2019-02-21T10:49:25.909Z,67.10
2019-02-21T10:50:25.892Z,67.40
2019-02-21T10:51:25.898Z,68.40
2019-02-21T10:52:25.877Z,66.60
2019-02-21T10:53:25.857Z,72.40
2019-02-21T10:54:25.851Z,68.00
2019-02-21T10:55:25.842Z,67.40
2019-02-21T10:56:25.850Z,66.30
2019-02-21T10:57:25.814Z,64.90
2019-02-21T10:58:25.800Z,68.10
2019-02-21T10:59:25.820Z,67.20
2019-02-21T11:00:25.796Z,64.70
2019-02-21T11:01:25.794Z,66.50
2019-02-21T11:02:25.756Z,71.70
2019-02-21T11:03:25.743Z,65.80
2019-02-21T11:04:25.737Z,69.30
2019-02-21T11:05:25.744Z,64.80
2019-02-21T11:06:25.741Z,67.10
2019-02-21T11:07:25.702Z,70.40
2019-02-21T11:08:25.692Z,65.10
2019-02-21T11:09:25.679Z,63.90
2019-02-21T11:10:25.675Z,70.20
2019-02-21T11:11:25.676Z,63.10
2019-02-21T11:12:25.684Z,66.50
2019-02-21T11:13:25.633Z,58.70
2019-02-21T11:14:25.624Z,62.90
2019-02-21T11:15:25.605Z,59.50
2019-02-21T11:16:25.649Z,62.70
2019-02-21T11:17:25.918Z,62.20
2019-02-21T11:18:25.584Z,59.70
2019-02-21T11:19:25.570Z,59.60
2019-02-21T11:20:25.560Z,61.70
2019-02-21T11:21:25.546Z,62.20
2019-02-21T11:22:25.564Z,62.00
2019-02-21T11:23:25.524Z,55.50
2019-02-21T11:24:25.524Z,62.00
2019-02-21T11:25:25.541Z,53.10
2019-02-21T11:26:25.496Z,55.70
2019-02-21T11:27:25.521Z,58.90
2019-02-21T11:28:25.475Z,56.30
2019-02-21T11:29:25.456Z,57.20
2019-02-21T11:30:25.451Z,59.40
2019-02-21T11:31:27.738Z,59.40
2019-02-21T11:32:25.456Z,60.40
2019-02-21T11:33:25.413Z,59.20
2019-02-21T11:34:25.414Z,63.30
2019-02-21T11:35:25.387Z,70.50
2019-02-21T11:36:25.380Z,75.20
2019-02-21T11:37:25.387Z,59.30
2019-02-21T11:38:25.361Z,54.40
2019-02-21T11:39:25.371Z,51.90
2019-02-21T11:40:25.342Z,52.00
2019-02-21T11:41:25.364Z,54.70
2019-02-21T11:42:25.396Z,49.90
2019-02-21T11:43:25.330Z,55.30
2019-02-21T11:44:25.298Z,50.90
2019-02-21T11:45:25.276Z,53.10
2019-02-21T11:46:25.282Z,54.60
2019-02-21T11:47:25.256Z,50.90
2019-02-21T11:48:25.389Z,49.20
2019-02-21T11:49:25.235Z,50.60
2019-02-21T11:50:25.230Z,53.60
2019-02-21T11:51:25.213Z,57.50
2019-02-21T11:52:25.285Z,55.90
2019-02-21T11:53:25.227Z,56.90
2019-02-21T11:54:27.202Z,54.90
2019-02-21T11:55:25.177Z,50.30
2019-02-21T11:56:25.161Z,56.50
2019-02-21T11:57:25.159Z,54.40
2019-02-21T11:58:25.168Z,52.80
2019-02-21T11:59:25.144Z,53.60
2019-02-21T12:00:25.125Z,50.00
2019-02-21T12:01:25.109Z,57.60
2019-02-21T12:02:25.102Z,67.40
2019-02-21T12:03:25.099Z,54.80
2019-02-21T12:04:25.070Z,55.10
2019-02-21T12:05:31.389Z,52.30
2019-02-21T12:06:26.051Z,54.70
2019-02-21T12:07:25.057Z,54.90
2019-02-21T12:08:25.057Z,52.90
2019-02-21T12:09:25.013Z,53.60
2019-02-21T12:10:25.005Z,54.40
2019-02-21T12:11:24.986Z,54.30
2019-02-21T12:12:24.989Z,48.70
2019-02-21T12:13:25.003Z,50.30
2019-02-21T12:14:24.960Z,52.30
2019-02-21T12:15:24.946Z,50.80
2019-02-21T12:16:24.936Z,50.10
2019-02-21T12:17:24.920Z,48.30
2019-02-21T12:18:24.946Z,52.20
2019-02-21T12:19:24.902Z,48.10
2019-02-21T12:20:24.904Z,46.30
2019-02-21T12:21:24.908Z,46.00
2019-02-21T12:22:24.867Z,47.30
2019-02-21T12:23:24.863Z,39.80
2019-02-21T12:24:24.878Z,39.40
2019-02-21T12:25:24.834Z,35.20
2019-02-21T12:26:24.827Z,35.70
2019-02-21T12:27:24.810Z,35.30
2019-02-21T12:28:24.808Z,36.10
2019-02-21T12:29:24.822Z,39.30
2019-02-21T12:30:24.791Z,32.90
2019-02-21T12:31:24.767Z,37.10
2019-02-21T12:32:24.764Z,37.80
2019-02-21T12:33:24.747Z,35.90
2019-02-21T12:34:24.759Z,36.30
2019-02-21T12:35:29.555Z,40.10
2019-02-21T12:36:25.722Z,37.20
2019-02-21T12:37:24.706Z,40.30
2019-02-21T12:38:24.707Z,38.50
2019-02-21T12:39:24.735Z,39.50
2019-02-21T12:40:24.697Z,35.10
2019-02-21T12:41:24.664Z,36.60
2019-02-21T12:42:24.657Z,39.10
2019-02-21T12:43:24.629Z,35.90
2019-02-21T12:44:24.629Z,36.10
2019-02-21T12:45:24.773Z,35.40
2019-02-21T12:46:24.606Z,39.30
2019-02-21T12:47:24.584Z,35.40
2019-02-21T12:48:24.586Z,39.90
2019-02-21T12:49:24.600Z,39.90
2019-02-21T12:50:24.591Z,37.50
2019-02-21T12:51:24.546Z,38.80
2019-02-21T12:52:24.541Z,34.40
2019-02-21T12:53:24.523Z,30.60
2019-02-21T12:54:24.831Z,34.40
2019-02-21T12:55:29.209Z,29.70
2019-02-21T12:57:25.617Z,28.20
2019-02-21T12:58:24.483Z,28.10
2019-02-21T12:59:24.455Z,27.50
2019-02-21T13:00:24.504Z,27.20
2019-02-21T13:01:24.441Z,24.60
2019-02-21T13:02:24.435Z,25.80
2019-02-21T13:03:24.408Z,30.50
2019-02-21T13:04:24.412Z,27.50
2019-02-21T13:05:24.436Z,25.10
2019-02-21T13:06:24.404Z,23.80
2019-02-21T13:07:24.365Z,24.40
2019-02-21T13:08:24.365Z,28.80
2019-02-21T13:09:24.363Z,27.60
2019-02-21T13:10:24.369Z,28.30
2019-02-21T13:11:24.329Z,27.30
2019-02-21T13:12:24.315Z,29.90
2019-02-21T13:13:24.300Z,30.20
2019-02-21T13:14:24.291Z,27.50
2019-02-21T13:15:24.321Z,25.60
2019-02-21T13:16:24.277Z,28.50
2019-02-21T13:17:24.267Z,27.60
2019-02-21T13:18:24.247Z,27.60